sensor_id;sensor_type;location;lat;lon;timestamp;pressure;altitude;pressure_sealevel;temperature;humidity
60609;BME280;48221;53.528;9.884;2022-08-03T00:01:17;101464.59;;;20.21;100.00
60609;BME280;48221;53.528;9.884;2022-08-03T00:03:43;101465.53;;;20.17;100.00
60609;BME280;48221;53.528;9.884;2022-08-03T00:06:08;101461.97;;;20.14;100.00
60609;BME280;48221;53.528;9.884;2022-08-03T00:08:34;101461.13;;;20.10;100.00
60609;BME280;48221;53.528;9.884;2022-08-03T00:10:59;101462.00;;;20.07;100.00
60609;BME280;48221;53.528;9.884;2022-08-03T00:13:25;101462.03;;;20.04;100.00
60609;BME280;48221;53.528;9.884;2022-08-03T00:15:51;101460.25;;;20.00;100.00
60609;BME280;48221;53.528;9.884;2022-08-03T00:18:16;101461.16;;;19.99;100.00
60609;BME280;48221;53.528;9.884;2022-08-03T00:20:42;101454.97;;;19.96;100.00
60609;BME280;48221;53.528;9.884;2022-08-03T00:23:07;101450.59;;;19.92;100.00
60609;BME280;48221;53.528;9.884;2022-08-03T00:25:34;101461.16;;;19.89;100.00
60609;BME280;48221;53.528;9.884;2022-08-03T00:28:00;101455.88;;;19.86;100.00
60609;BME280;48221;53.528;9.884;2022-08-03T00:30:25;101442.66;;;19.81;100.00
60609;BME280;48221;53.528;9.884;2022-08-03T00:32:51;101442.66;;;19.78;100.00
60609;BME280;48221;53.528;9.884;2022-08-03T00:35:16;101450.59;;;19.76;100.00
60609;BME280;48221;53.528;9.884;2022-08-03T00:37:42;101447.09;;;19.73;100.00
60609;BME280;48221;53.528;9.884;2022-08-03T00:40:12;101443.56;;;19.71;100.00
60609;BME280;48221;53.528;9.884;2022-08-03T00:42:48;101447.09;;;19.68;100.00
60609;BME280;48221;53.528;9.884;2022-08-03T00:45:15;101442.69;;;19.63;100.00
60609;BME280;48221;53.528;9.884;2022-08-03T00:47:41;101441.81;;;19.61;100.00
60609;BME280;48221;53.528;9.884;2022-08-03T00:50:06;101442.72;;;19.58;100.00
60609;BME280;48221;53.528;9.884;2022-08-03T00:52:33;101441.78;;;19.54;100.00
60609;BME280;48221;53.528;9.884;2022-08-03T00:54:59;101440.91;;;19.52;100.00
60609;BME280;48221;53.528;9.884;2022-08-03T00:57:26;101445.31;;;19.50;100.00
60609;BME280;48221;53.528;9.884;2022-08-03T00:59:53;101440.03;;;19.46;100.00
60609;BME280;48221;53.528;9.884;2022-08-03T01:02:18;101444.44;;;19.44;100.00
60609;BME280;48221;53.528;9.884;2022-08-03T01:04:43;101435.63;;;19.40;100.00
60609;BME280;48221;53.528;9.884;2022-08-03T01:07:17;101431.22;;;19.36;100.00
60609;BME280;48221;53.528;9.884;2022-08-03T01:10:18;101426.81;;;19.35;100.00
60609;BME280;48221;53.528;9.884;2022-08-03T01:15:35;101437.38;;;19.31;100.00
60609;BME280;48221;53.528;9.884;2022-08-03T01:18:08;101437.38;;;19.28;100.00
60609;BME280;48221;53.528;9.884;2022-08-03T01:20:37;101442.69;;;19.24;100.00
60609;BME280;48221;53.528;9.884;2022-08-03T01:23:25;101433.00;;;19.22;100.00
60609;BME280;48221;53.528;9.884;2022-08-03T01:26:05;101432.97;;;19.19;100.00
60609;BME280;48221;53.528;9.884;2022-08-03T01:31:06;101434.75;;;19.14;100.00
60609;BME280;48221;53.528;9.884;2022-08-03T01:33:43;101430.34;;;19.13;100.00
60609;BME280;48221;53.528;9.884;2022-08-03T01:36:13;101425.94;;;19.10;100.00
60609;BME280;48221;53.528;9.884;2022-08-03T01:38:54;101432.09;;;19.08;100.00
60609;BME280;48221;53.528;9.884;2022-08-03T01:41:23;101430.31;;;19.07;100.00
60609;BME280;48221;53.528;9.884;2022-08-03T01:43:50;101432.97;;;19.05;100.00
60609;BME280;48221;53.528;9.884;2022-08-03T01:46:17;101433.84;;;19.03;100.00
60609;BME280;48221;53.528;9.884;2022-08-03T01:48:46;101429.44;;;19.02;100.00
60609;BME280;48221;53.528;9.884;2022-08-03T01:51:14;101430.31;;;18.98;100.00
60609;BME280;48221;53.528;9.884;2022-08-03T01:53:41;101435.59;;;18.98;100.00
60609;BME280;48221;53.528;9.884;2022-08-03T01:56:10;101429.44;;;18.95;100.00
60609;BME280;48221;53.528;9.884;2022-08-03T01:58:36;101432.97;;;18.94;100.00
60609;BME280;48221;53.528;9.884;2022-08-03T02:01:04;101425.91;;;18.93;100.00
60609;BME280;48221;53.528;9.884;2022-08-03T02:03:30;101426.78;;;18.92;100.00
60609;BME280;48221;53.528;9.884;2022-08-03T02:05:59;101411.81;;;18.88;100.00
60609;BME280;48221;53.528;9.884;2022-08-03T02:08:25;101415.34;;;18.87;100.00
60609;BME280;48221;53.528;9.884;2022-08-03T02:10:53;101403.84;;;18.85;100.00
60609;BME280;48221;53.528;9.884;2022-08-03T02:13:21;101419.72;;;18.85;100.00
60609;BME280;48221;53.528;9.884;2022-08-03T02:15:49;101420.59;;;18.84;100.00
60609;BME280;48221;53.528;9.884;2022-08-03T02:18:18;101420.59;;;18.83;100.00
60609;BME280;48221;53.528;9.884;2022-08-03T02:20:45;101415.31;;;18.80;100.00
60609;BME280;48221;53.528;9.884;2022-08-03T02:23:11;101416.19;;;18.77;100.00
60609;BME280;48221;53.528;9.884;2022-08-03T02:25:42;101412.69;;;18.77;100.00
60609;BME280;48221;53.528;9.884;2022-08-03T02:28:16;101417.09;;;18.78;100.00
60609;BME280;48221;53.528;9.884;2022-08-03T02:30:45;101409.13;;;18.73;100.00
60609;BME280;48221;53.528;9.884;2022-08-03T02:33:18;101410.00;;;18.72;100.00
60609;BME280;48221;53.528;9.884;2022-08-03T02:35:46;101408.25;;;18.71;100.00
60609;BME280;48221;53.528;9.884;2022-08-03T02:38:14;101414.41;;;18.70;100.00
60609;BME280;48221;53.528;9.884;2022-08-03T02:40:43;101400.31;;;18.68;100.00
60609;BME280;48221;53.528;9.884;2022-08-03T02:43:10;101408.25;;;18.65;100.00
60609;BME280;48221;53.528;9.884;2022-08-03T02:45:43;101404.66;;;18.63;100.00
60609;BME280;48221;53.528;9.884;2022-08-03T02:48:10;101403.78;;;18.61;100.00
60609;BME280;48221;53.528;9.884;2022-08-03T02:50:37;101403.78;;;18.58;100.00
60609;BME280;48221;53.528;9.884;2022-08-03T02:53:04;101402.03;;;18.55;100.00
60609;BME280;48221;53.528;9.884;2022-08-03T02:55:33;101396.75;;;18.54;100.00
60609;BME280;48221;53.528;9.884;2022-08-03T02:57:59;101405.53;;;18.54;100.00
60609;BME280;48221;53.528;9.884;2022-08-03T03:00:26;101402.91;;;18.53;100.00
60609;BME280;48221;53.528;9.884;2022-08-03T03:02:57;101402.88;;;18.50;100.00
60609;BME280;48221;53.528;9.884;2022-08-03T03:05:23;101402.00;;;18.51;100.00
60609;BME280;48221;53.528;9.884;2022-08-03T03:07:48;101400.22;;;18.48;100.00
60609;BME280;48221;53.528;9.884;2022-08-03T03:10:14;101401.13;;;18.49;100.00
60609;BME280;48221;53.528;9.884;2022-08-03T03:12:40;101402.88;;;18.45;100.00
60609;BME280;48221;53.528;9.884;2022-08-03T03:15:07;101402.00;;;18.45;100.00
60609;BME280;48221;53.528;9.884;2022-08-03T03:17:33;101403.75;;;18.43;100.00
60609;BME280;48221;53.528;9.884;2022-08-03T03:19:59;101409.03;;;18.43;100.00
60609;BME280;48221;53.528;9.884;2022-08-03T03:22:26;101402.84;;;18.41;100.00
60609;BME280;48221;53.528;9.884;2022-08-03T03:24:53;101404.59;;;18.38;100.00
60609;BME280;48221;53.528;9.884;2022-08-03T03:27:20;101403.72;;;18.36;100.00
60609;BME280;48221;53.528;9.884;2022-08-03T03:29:45;101398.44;;;18.33;100.00
60609;BME280;48221;53.528;9.884;2022-08-03T03:32:12;101407.25;;;18.37;100.00
60609;BME280;48221;53.528;9.884;2022-08-03T03:34:37;101410.75;;;18.34;100.00
60609;BME280;48221;53.528;9.884;2022-08-03T03:37:03;101409.88;;;18.35;100.00
60609;BME280;48221;53.528;9.884;2022-08-03T03:39:29;101412.53;;;18.35;100.00
60609;BME280;48221;53.528;9.884;2022-08-03T03:41:54;101418.69;;;18.34;100.00
60609;BME280;48221;53.528;9.884;2022-08-03T03:44:25;101412.53;;;18.34;100.00
60609;BME280;48221;53.528;9.884;2022-08-03T03:46:51;101408.13;;;18.33;100.00
60609;BME280;48221;53.528;9.884;2022-08-03T03:49:17;101409.00;;;18.30;100.00
60609;BME280;48221;53.528;9.884;2022-08-03T03:51:42;101405.47;;;18.30;100.00
60609;BME280;48221;53.528;9.884;2022-08-03T03:54:08;101402.81;;;18.24;100.00
60609;BME280;48221;53.528;9.884;2022-08-03T03:56:33;101410.72;;;18.28;100.00
60609;BME280;48221;53.528;9.884;2022-08-03T03:58:59;101408.97;;;18.27;100.00
60609;BME280;48221;53.528;9.884;2022-08-03T04:01:26;101402.81;;;18.24;100.00
60609;BME280;48221;53.528;9.884;2022-08-03T04:03:55;101398.38;;;18.18;100.00
60609;BME280;48221;53.528;9.884;2022-08-03T04:06:21;101402.78;;;18.22;100.00
60609;BME280;48221;53.528;9.884;2022-08-03T04:09:06;101418.66;;;18.24;100.00
60609;BME280;48221;53.528;9.884;2022-08-03T04:11:52;101416.00;;;18.22;100.00
60609;BME280;48221;53.528;9.884;2022-08-03T04:14:27;101409.84;;;18.22;100.00
60609;BME280;48221;53.528;9.884;2022-08-03T04:17:01;101402.78;;;18.19;100.00
60609;BME280;48221;53.528;9.884;2022-08-03T04:19:35;101408.09;;;18.21;100.00
60609;BME280;48221;53.528;9.884;2022-08-03T04:22:11;101405.44;;;18.21;100.00
60609;BME280;48221;53.528;9.884;2022-08-03T04:24:42;101406.31;;;18.21;100.00
60609;BME280;48221;53.528;9.884;2022-08-03T04:27:10;101403.69;;;18.21;100.00
60609;BME280;48221;53.528;9.884;2022-08-03T04:29:38;101408.09;;;18.22;100.00
60609;BME280;48221;53.528;9.884;2022-08-03T04:32:06;101403.69;;;18.21;100.00
60609;BME280;48221;53.528;9.884;2022-08-03T04:34:32;101402.81;;;18.24;100.00
60609;BME280;48221;53.528;9.884;2022-08-03T04:36:59;101408.09;;;18.24;100.00
60609;BME280;48221;53.528;9.884;2022-08-03T04:39:28;101408.97;;;18.24;100.00
60609;BME280;48221;53.528;9.884;2022-08-03T04:41:57;101410.72;;;18.25;100.00
60609;BME280;48221;53.528;9.884;2022-08-03T04:44:24;101408.97;;;18.27;100.00
60609;BME280;48221;53.528;9.884;2022-08-03T04:46:51;101418.66;;;18.28;100.00
60609;BME280;48221;53.528;9.884;2022-08-03T04:49:17;101417.81;;;18.29;100.00
60609;BME280;48221;53.528;9.884;2022-08-03T04:51:44;101413.38;;;18.27;100.00
60609;BME280;48221;53.528;9.884;2022-08-03T04:54:13;101426.63;;;18.31;100.00
60609;BME280;48221;53.528;9.884;2022-08-03T04:56:40;101422.22;;;18.33;100.00
60609;BME280;48221;53.528;9.884;2022-08-03T04:59:06;101420.44;;;18.35;100.00
60609;BME280;48221;53.528;9.884;2022-08-03T05:01:31;101421.34;;;18.34;100.00
60609;BME280;48221;53.528;9.884;2022-08-03T05:03:57;101417.81;;;18.35;100.00
60609;BME280;48221;53.528;9.884;2022-08-03T05:06:22;101417.81;;;18.38;100.00
60609;BME280;48221;53.528;9.884;2022-08-03T05:08:49;101429.28;;;18.42;100.00
60609;BME280;48221;53.528;9.884;2022-08-03T05:11:15;101423.13;;;18.45;100.00
60609;BME280;48221;53.528;9.884;2022-08-03T05:13:41;101419.59;;;18.46;100.00
60609;BME280;48221;53.528;9.884;2022-08-03T05:16:06;101421.38;;;18.45;100.00
60609;BME280;48221;53.528;9.884;2022-08-03T05:18:32;101418.72;;;18.51;100.00
60609;BME280;48221;53.528;9.884;2022-08-03T05:20:57;101423.16;;;18.54;100.00
60609;BME280;48221;53.528;9.884;2022-08-03T05:23:23;101426.69;;;18.56;100.00
60609;BME280;48221;53.528;9.884;2022-08-03T05:25:48;101426.69;;;18.57;100.00
60609;BME280;48221;53.528;9.884;2022-08-03T05:28:14;101432.84;;;18.62;100.00
60609;BME280;48221;53.528;9.884;2022-08-03T05:30:39;101432.03;;;18.67;100.00
60609;BME280;48221;53.528;9.884;2022-08-03T05:33:04;101428.50;;;18.69;100.00
60609;BME280;48221;53.528;9.884;2022-08-03T05:35:31;101421.47;;;18.74;100.00
60609;BME280;48221;53.528;9.884;2022-08-03T05:37:56;101429.41;;;18.79;100.00
60609;BME280;48221;53.528;9.884;2022-08-03T05:40:22;101423.25;;;18.84;100.00
60609;BME280;48221;53.528;9.884;2022-08-03T05:42:47;101421.50;;;18.89;100.00
60609;BME280;48221;53.528;9.884;2022-08-03T05:45:13;101423.25;;;18.97;100.00
60609;BME280;48221;53.528;9.884;2022-08-03T05:47:40;101429.44;;;19.03;100.00
60609;BME280;48221;53.528;9.884;2022-08-03T05:50:06;101424.16;;;19.08;100.00
60609;BME280;48221;53.528;9.884;2022-08-03T05:52:31;101425.94;;;19.15;100.00
60609;BME280;48221;53.528;9.884;2022-08-03T05:54:57;101425.03;;;19.20;100.00
60609;BME280;48221;53.528;9.884;2022-08-03T05:57:22;101417.13;;;19.25;100.00
60609;BME280;48221;53.528;9.884;2022-08-03T05:59:47;101414.44;;;19.31;100.00
60609;BME280;48221;53.528;9.884;2022-08-03T06:02:13;101421.50;;;19.41;100.00
60609;BME280;48221;53.528;9.884;2022-08-03T06:04:38;101419.72;;;19.49;100.00
60609;BME280;48221;53.528;9.884;2022-08-03T06:07:03;101415.31;;;19.56;100.00
60609;BME280;48221;53.528;9.884;2022-08-03T06:09:28;101418.84;;;19.66;100.00
60609;BME280;48221;53.528;9.884;2022-08-03T06:11:54;101419.72;;;19.75;100.00
60609;BME280;48221;53.528;9.884;2022-08-03T06:14:19;101416.16;;;19.84;100.00
60609;BME280;48221;53.528;9.884;2022-08-03T06:16:44;101417.03;;;19.94;100.00
60609;BME280;48221;53.528;9.884;2022-08-03T06:19:10;101424.06;;;20.04;100.00
60609;BME280;48221;53.528;9.884;2022-08-03T06:21:35;101416.94;;;20.14;100.00
60609;BME280;48221;53.528;9.884;2022-08-03T06:24:00;101418.66;;;20.24;100.00
60609;BME280;48221;53.528;9.884;2022-08-03T06:26:26;101423.03;;;20.34;100.00
60609;BME280;48221;53.528;9.884;2022-08-03T06:28:52;101408.91;;;20.43;100.00
60609;BME280;48221;53.528;9.884;2022-08-03T06:31:18;101407.97;;;20.53;100.00
60609;BME280;48221;53.528;9.884;2022-08-03T06:33:44;101415.84;;;20.63;100.00
60609;BME280;48221;53.528;9.884;2022-08-03T06:36:09;101423.75;;;20.71;100.00
60609;BME280;48221;53.528;9.884;2022-08-03T06:38:35;101416.66;;;20.75;100.00
60609;BME280;48221;53.528;9.884;2022-08-03T06:41:00;101425.44;;;20.84;100.00
60609;BME280;48221;53.528;9.884;2022-08-03T06:43:25;101425.38;;;20.92;100.00
60609;BME280;48221;53.528;9.884;2022-08-03T06:45:51;101419.19;;;20.96;100.00
60609;BME280;48221;53.528;9.884;2022-08-03T06:48:16;101424.38;;;21.08;100.00
60609;BME280;48221;53.528;9.884;2022-08-03T06:50:42;101424.31;;;21.14;100.00
60609;BME280;48221;53.528;9.884;2022-08-03T06:53:08;101420.72;;;21.21;100.00
60609;BME280;48221;53.528;9.884;2022-08-03T06:55:34;101433.03;;;21.35;100.00
60609;BME280;48221;53.528;9.884;2022-08-03T06:58:00;101422.28;;;21.48;100.00
60609;BME280;48221;53.528;9.884;2022-08-03T07:00:25;101427.44;;;21.65;100.00
60609;BME280;48221;53.528;9.884;2022-08-03T07:02:52;101429.97;;;21.76;100.00
60609;BME280;48221;53.528;9.884;2022-08-03T07:05:18;101429.84;;;21.87;100.00
60609;BME280;48221;53.528;9.884;2022-08-03T07:07:43;101435.91;;;22.01;100.00
60609;BME280;48221;53.528;9.884;2022-08-03T07:10:09;101433.13;;;22.15;98.13
60609;BME280;48221;53.528;9.884;2022-08-03T07:12:36;101440.03;;;22.29;99.03
60609;BME280;48221;53.528;9.884;2022-08-03T07:15:03;101425.63;;;22.44;93.87
60609;BME280;48221;53.528;9.884;2022-08-03T07:17:31;101445.78;;;22.62;89.61
60609;BME280;48221;53.528;9.884;2022-08-03T07:19:57;101435.94;;;22.70;86.23
60609;BME280;48221;53.528;9.884;2022-08-03T07:22:22;101440.19;;;22.85;86.96
60609;BME280;48221;53.528;9.884;2022-08-03T07:24:48;101444.44;;;22.96;85.36
60609;BME280;48221;53.528;9.884;2022-08-03T07:27:15;101443.41;;;23.04;84.34
60609;BME280;48221;53.528;9.884;2022-08-03T07:29:40;101444.13;;;23.15;85.61
60609;BME280;48221;53.528;9.884;2022-08-03T07:32:05;101449.38;;;23.19;84.10
60609;BME280;48221;53.528;9.884;2022-08-03T07:34:31;101447.50;;;23.27;86.21
60609;BME280;48221;53.528;9.884;2022-08-03T07:36:56;101442.00;;;23.35;83.76
60609;BME280;48221;53.528;9.884;2022-08-03T07:39:22;101448.13;;;23.42;81.90
60609;BME280;48221;53.528;9.884;2022-08-03T07:41:47;101450.50;;;23.57;77.57
60609;BME280;48221;53.528;9.884;2022-08-03T07:44:16;101444.06;;;23.72;78.37
60609;BME280;48221;53.528;9.884;2022-08-03T07:46:41;101436.84;;;23.78;79.36
60609;BME280;48221;53.528;9.884;2022-08-03T07:49:07;101448.16;;;23.90;77.99
60609;BME280;48221;53.528;9.884;2022-08-03T07:51:32;101448.00;;;23.99;76.90
60609;BME280;48221;53.528;9.884;2022-08-03T07:53:58;101435.44;;;24.04;77.57
60609;BME280;48221;53.528;9.884;2022-08-03T07:56:25;101441.56;;;24.09;76.45
60609;BME280;48221;53.528;9.884;2022-08-03T07:58:51;101440.44;;;24.19;75.75
60609;BME280;48221;53.528;9.884;2022-08-03T08:01:16;101443.84;;;24.27;73.92
60609;BME280;48221;53.528;9.884;2022-08-03T08:03:46;101441.06;;;24.35;75.44
60609;BME280;48221;53.528;9.884;2022-08-03T08:06:11;101434.69;;;24.40;73.86
60609;BME280;48221;53.528;9.884;2022-08-03T08:08:38;101446.97;;;24.49;73.35
60609;BME280;48221;53.528;9.884;2022-08-03T08:11:03;101443.19;;;24.59;74.35
60609;BME280;48221;53.528;9.884;2022-08-03T08:13:29;101440.31;;;24.68;73.57
60609;BME280;48221;53.528;9.884;2022-08-03T08:15:54;101443.69;;;24.77;74.70
60609;BME280;48221;53.528;9.884;2022-08-03T08:18:20;101431.94;;;24.84;73.12
60609;BME280;48221;53.528;9.884;2022-08-03T08:20:45;101436.28;;;24.88;74.89
60609;BME280;48221;53.528;9.884;2022-08-03T08:23:12;101433.63;;;24.89;74.58
60609;BME280;48221;53.528;9.884;2022-08-03T08:25:37;101436.16;;;24.94;71.90
60609;BME280;48221;53.528;9.884;2022-08-03T08:28:03;101437.84;;;24.98;71.79
60609;BME280;48221;53.528;9.884;2022-08-03T08:30:30;101436.88;;;25.04;69.94
60609;BME280;48221;53.528;9.884;2022-08-03T08:32:56;101436.66;;;25.13;72.29
60609;BME280;48221;53.528;9.884;2022-08-03T08:35:22;101435.72;;;25.14;69.77
60609;BME280;48221;53.528;9.884;2022-08-03T08:37:48;101434.59;;;25.24;67.94
60609;BME280;48221;53.528;9.884;2022-08-03T08:40:13;101428.06;;;25.34;67.87
60609;BME280;48221;53.528;9.884;2022-08-03T08:42:40;101435.03;;;25.41;66.70
60609;BME280;48221;53.528;9.884;2022-08-03T08:45:07;101434.81;;;25.49;68.71
60609;BME280;48221;53.528;9.884;2022-08-03T08:47:40;101434.59;;;25.56;68.42
60609;BME280;48221;53.528;9.884;2022-08-03T08:50:08;101436.22;;;25.64;66.71
60609;BME280;48221;53.528;9.884;2022-08-03T08:52:35;101429.84;;;25.68;67.28
60609;BME280;48221;53.528;9.884;2022-08-03T08:55:06;101444.72;;;25.79;67.34
60609;BME280;48221;53.528;9.884;2022-08-03T08:57:36;101439.94;;;25.91;65.06
60609;BME280;48221;53.528;9.884;2022-08-03T09:00:07;101440.72;;;25.96;64.22
60609;BME280;48221;53.528;9.884;2022-08-03T09:02:38;101439.56;;;26.04;67.15
60609;BME280;48221;53.528;9.884;2022-08-03T09:05:17;101443.75;;;26.13;66.24
60609;BME280;48221;53.528;9.884;2022-08-03T09:07:44;101438.31;;;26.16;64.66
60609;BME280;48221;53.528;9.884;2022-08-03T09:10:11;101434.56;;;26.23;63.41
60609;BME280;48221;53.528;9.884;2022-08-03T09:12:42;101430.03;;;26.25;64.55
60609;BME280;48221;53.528;9.884;2022-08-03T09:17:47;101426.31;;;26.31;65.04
60609;BME280;48221;53.528;9.884;2022-08-03T09:20:13;101433.31;;;26.36;63.76
60609;BME280;48221;53.528;9.884;2022-08-03T09:23:24;101437.47;;;26.46;64.50
60609;BME280;48221;53.528;9.884;2022-08-03T09:25:42;101423.94;;;26.51;61.62
60609;BME280;48221;53.528;9.884;2022-08-03T09:28:14;101435.16;;;26.64;60.91
60609;BME280;48221;53.528;9.884;2022-08-03T09:30:44;101430.34;;;26.75;60.41
60609;BME280;48221;53.528;9.884;2022-08-03T09:33:13;101438.91;;;26.86;61.15
60609;BME280;48221;53.528;9.884;2022-08-03T09:35:47;101428.81;;;26.94;60.75
60609;BME280;48221;53.528;9.884;2022-08-03T09:38:17;101435.84;;;26.98;59.61
60609;BME280;48221;53.528;9.884;2022-08-03T09:40:44;101428.56;;;27.03;60.58
60609;BME280;48221;53.528;9.884;2022-08-03T09:43:10;101434.50;;;27.13;60.24
60609;BME280;48221;53.528;9.884;2022-08-03T09:45:37;101430.66;;;27.20;60.28
60609;BME280;48221;53.528;9.884;2022-08-03T09:48:25;101432.16;;;27.29;59.10
60609;BME280;48221;53.528;9.884;2022-08-03T09:50:55;101429.28;;;27.35;58.64
60609;BME280;48221;53.528;9.884;2022-08-03T09:53:21;101426.38;;;27.41;58.61
60609;BME280;48221;53.528;9.884;2022-08-03T09:56:04;101432.34;;;27.49;56.60
60609;BME280;48221;53.528;9.884;2022-08-03T09:58:30;101431.16;;;27.58;57.30
60609;BME280;48221;53.528;9.884;2022-08-03T10:01:04;101429.19;;;27.63;57.20
60609;BME280;48221;53.528;9.884;2022-08-03T10:03:31;101421.94;;;27.67;55.51
60609;BME280;48221;53.528;9.884;2022-08-03T10:05:57;101419.91;;;27.73;56.69
60609;BME280;48221;53.528;9.884;2022-08-03T10:08:23;101429.56;;;27.79;55.26
60609;BME280;48221;53.528;9.884;2022-08-03T10:10:50;101428.50;;;27.83;55.15
60609;BME280;48221;53.528;9.884;2022-08-03T10:13:19;101415.09;;;27.83;56.94
60609;BME280;48221;53.528;9.884;2022-08-03T10:15:45;101428.34;;;27.87;55.01
60609;BME280;48221;53.528;9.884;2022-08-03T10:18:11;101417.53;;;27.90;54.54
60609;BME280;48221;53.528;9.884;2022-08-03T10:20:42;101426.13;;;27.99;56.24
60609;BME280;48221;53.528;9.884;2022-08-03T10:23:09;101422.25;;;28.07;56.33
60609;BME280;48221;53.528;9.884;2022-08-03T10:25:37;101416.69;;;28.12;55.53
60609;BME280;48221;53.528;9.884;2022-08-03T10:28:03;101408.63;;;28.13;52.94
60609;BME280;48221;53.528;9.884;2022-08-03T10:30:32;101419.91;;;28.22;54.83
60609;BME280;48221;53.528;9.884;2022-08-03T10:33:19;101398.28;;;28.26;54.92
60609;BME280;48221;53.528;9.884;2022-08-03T10:35:46;101405.91;;;28.38;55.86
60609;BME280;48221;53.528;9.884;2022-08-03T10:38:17;101408.31;;;28.44;54.97
60609;BME280;48221;53.528;9.884;2022-08-03T10:40:43;101401.59;;;28.56;54.96
60609;BME280;48221;53.528;9.884;2022-08-03T10:43:11;101407.59;;;28.63;53.19
60609;BME280;48221;53.528;9.884;2022-08-03T10:45:44;101400.09;;;28.71;55.20
60609;BME280;48221;53.528;9.884;2022-08-03T10:48:10;101404.09;;;28.83;52.49
60609;BME280;48221;53.528;9.884;2022-08-03T10:50:36;101403.19;;;28.84;50.91
60609;BME280;48221;53.528;9.884;2022-08-03T10:53:05;101413.88;;;28.85;51.35
60609;BME280;48221;53.528;9.884;2022-08-03T10:55:38;101411.81;;;28.92;51.90
60609;BME280;48221;53.528;9.884;2022-08-03T11:01:09;101403.44;;;28.99;52.54
60609;BME280;48221;53.528;9.884;2022-08-03T11:06:24;101406.44;;;28.92;50.67
60609;BME280;48221;53.528;9.884;2022-08-03T11:11:34;101402.34;;;28.82;50.87
60609;BME280;48221;53.528;9.884;2022-08-03T11:16:30;101396.03;;;29.06;52.05
60609;BME280;48221;53.528;9.884;2022-08-03T11:19:09;101390.13;;;29.18;50.48
60609;BME280;48221;53.528;9.884;2022-08-03T11:27:19;101395.88;;;29.51;50.03
60609;BME280;48221;53.528;9.884;2022-08-03T11:38:00;101396.06;;;29.87;48.46
60609;BME280;48221;53.528;9.884;2022-08-03T11:40:41;101394.03;;;29.92;48.54
60609;BME280;48221;53.528;9.884;2022-08-03T11:45:35;101391.78;;;30.02;48.24
60609;BME280;48221;53.528;9.884;2022-08-03T11:48:14;101398.19;;;30.00;46.92
60609;BME280;48221;53.528;9.884;2022-08-03T11:50:42;101392.06;;;29.96;48.27
60609;BME280;48221;53.528;9.884;2022-08-03T11:53:13;101388.94;;;30.05;45.71
60609;BME280;48221;53.528;9.884;2022-08-03T11:55:39;101386.59;;;30.18;46.71
60609;BME280;48221;53.528;9.884;2022-08-03T11:58:07;101377.66;;;30.36;47.09
60609;BME280;48221;53.528;9.884;2022-08-03T12:00:32;101383.88;;;30.56;45.96
60609;BME280;48221;53.528;9.884;2022-08-03T12:03:04;101386.94;;;30.67;46.52
60609;BME280;48221;53.528;9.884;2022-08-03T12:05:47;101390.75;;;30.82;44.42
60609;BME280;48221;53.528;9.884;2022-08-03T12:08:16;101389.09;;;30.96;43.69
60609;BME280;48221;53.528;9.884;2022-08-03T12:10:47;101386.56;;;31.11;46.51
60609;BME280;48221;53.528;9.884;2022-08-03T12:13:13;101388.19;;;31.32;44.05
60609;BME280;48221;53.528;9.884;2022-08-03T12:15:39;101393.81;;;31.45;42.14
60609;BME280;48221;53.528;9.884;2022-08-03T12:18:16;101375.88;;;31.61;41.77
60609;BME280;48221;53.528;9.884;2022-08-03T12:20:44;101384.81;;;31.96;41.15
60609;BME280;48221;53.528;9.884;2022-08-03T12:23:10;101389.63;;;32.22;43.63
60609;BME280;48221;53.528;9.884;2022-08-03T12:25:37;101379.81;;;32.53;40.19
60609;BME280;48221;53.528;9.884;2022-08-03T12:28:17;101377.75;;;32.90;41.66
60609;BME280;48221;53.528;9.884;2022-08-03T12:30:45;101368.66;;;32.91;38.31
60609;BME280;48221;53.528;9.884;2022-08-03T12:35:37;101371.25;;;33.38;40.88
60609;BME280;48221;53.528;9.884;2022-08-03T12:38:02;101371.59;;;33.76;42.04
60609;BME280;48221;53.528;9.884;2022-08-03T12:40:28;101356.53;;;33.86;38.88
60609;BME280;48221;53.528;9.884;2022-08-03T12:42:53;101370.94;;;34.01;36.36
60609;BME280;48221;53.528;9.884;2022-08-03T12:45:24;101366.78;;;33.96;36.61
60609;BME280;48221;53.528;9.884;2022-08-03T12:47:51;101371.22;;;34.11;40.45
60609;BME280;48221;53.528;9.884;2022-08-03T12:50:31;101357.56;;;34.41;37.50
60609;BME280;48221;53.528;9.884;2022-08-03T12:52:59;101364.78;;;34.81;39.86
60609;BME280;48221;53.528;9.884;2022-08-03T12:55:25;101369.69;;;35.16;39.90
60609;BME280;48221;53.528;9.884;2022-08-03T12:57:58;101368.53;;;35.33;35.70
60609;BME280;48221;53.528;9.884;2022-08-03T13:00:23;101362.69;;;35.39;37.21
60609;BME280;48221;53.528;9.884;2022-08-03T13:03:04;101363.16;;;35.19;34.09
60609;BME280;48221;53.528;9.884;2022-08-03T13:05:31;101360.09;;;34.98;34.32
60609;BME280;48221;53.528;9.884;2022-08-03T13:07:57;101364.50;;;35.26;35.82
60609;BME280;48221;53.528;9.884;2022-08-03T13:10:28;101362.66;;;35.26;34.49
60609;BME280;48221;53.528;9.884;2022-08-03T13:12:54;101362.00;;;35.23;37.57
60609;BME280;48221;53.528;9.884;2022-08-03T13:15:22;101365.88;;;35.19;37.54
60609;BME280;48221;53.528;9.884;2022-08-03T13:17:48;101353.91;;;34.96;36.90
60609;BME280;48221;53.528;9.884;2022-08-03T13:20:13;101366.84;;;34.78;35.47
60609;BME280;48221;53.528;9.884;2022-08-03T13:22:38;101366.63;;;34.81;36.33
60609;BME280;48221;53.528;9.884;2022-08-03T13:25:04;101360.84;;;34.87;36.67
60609;BME280;48221;53.528;9.884;2022-08-03T13:27:30;101363.22;;;34.92;36.26